sensor_id;sensor_type;location;lat;lon;timestamp;pressure;altitude;pressure_sealevel;temperature;humidity
20630;BME280;17386;43.846;25.950;2022-09-12T00:00:44;100701.66;;;21.16;80.16
20630;BME280;17386;43.846;25.950;2022-09-12T00:03:09;100703.38;;;21.17;80.11
20630;BME280;17386;43.846;25.950;2022-09-12T00:05:40;100690.13;;;21.02;80.76
20630;BME280;17386;43.846;25.950;2022-09-12T00:08:06;100685.69;;;21.13;80.78
20630;BME280;17386;43.846;25.950;2022-09-12T00:10:31;100689.03;;;21.16;80.85
20630;BME280;17386;43.846;25.950;2022-09-12T00:12:57;100679.22;;;21.15;80.21
20630;BME280;17386;43.846;25.950;2022-09-12T00:15:22;100671.09;;;21.15;80.01
20630;BME280;17386;43.846;25.950;2022-09-12T00:17:48;100672.09;;;21.03;80.25
20630;BME280;17386;43.846;25.950;2022-09-12T00:20:13;100671.47;;;21.11;80.30
20630;BME280;17386;43.846;25.950;2022-09-12T00:22:38;100674.53;;;21.06;80.50
20630;BME280;17386;43.846;25.950;2022-09-12T00:25:04;100675.28;;;21.08;80.57
20630;BME280;17386;43.846;25.950;2022-09-12T00:27:30;100677.50;;;21.14;80.58
20630;BME280;17386;43.846;25.950;2022-09-12T00:29:56;100678.44;;;21.13;80.42
20630;BME280;17386;43.846;25.950;2022-09-12T00:32:22;100679.94;;;21.06;80.91
20630;BME280;17386;43.846;25.950;2022-09-12T00:34:47;100674.44;;;21.08;81.39
20630;BME280;17386;43.846;25.950;2022-09-12T00:37:12;100664.13;;;21.01;81.32
20630;BME280;17386;43.846;25.950;2022-09-12T00:39:38;100663.72;;;21.06;80.59
20630;BME280;17386;43.846;25.950;2022-09-12T00:42:04;100669.97;;;21.07;80.77
20630;BME280;17386;43.846;25.950;2022-09-12T00:49:51;100661.03;;;20.95;81.89
20630;BME280;17386;43.846;25.950;2022-09-12T00:52:28;100672.81;;;20.83;81.65
20630;BME280;17386;43.846;25.950;2022-09-12T00:55:11;100688.16;;;20.82;81.67
20630;BME280;17386;43.846;25.950;2022-09-12T00:57:57;100683.25;;;20.76;81.96
20630;BME280;17386;43.846;25.950;2022-09-12T01:00:25;100677.84;;;20.76;82.33
20630;BME280;17386;43.846;25.950;2022-09-12T01:02:54;100679.28;;;20.46;83.31
20630;BME280;17386;43.846;25.950;2022-09-12T01:05:22;100672.44;;;20.54;83.41
20630;BME280;17386;43.846;25.950;2022-09-12T01:07:49;100668.25;;;20.49;83.96
20630;BME280;17386;43.846;25.950;2022-09-12T01:10:15;100686.53;;;20.46;84.08
20630;BME280;17386;43.846;25.950;2022-09-12T01:12:42;100672.38;;;20.42;84.47
20630;BME280;17386;43.846;25.950;2022-09-12T01:15:08;100668.75;;;20.19;85.51
20630;BME280;17386;43.846;25.950;2022-09-12T01:23:27;100662.69;;;20.40;84.12
20630;BME280;17386;43.846;25.950;2022-09-12T01:29:26;100679.81;;;20.28;84.96
20630;BME280;17386;43.846;25.950;2022-09-12T01:37:41;100689.09;;;20.23;85.17
20630;BME280;17386;43.846;25.950;2022-09-12T01:43:07;100684.81;;;19.86;87.13
20630;BME280;17386;43.846;25.950;2022-09-12T01:45:43;100682.03;;;19.99;87.29
20630;BME280;17386;43.846;25.950;2022-09-12T01:48:33;100677.84;;;19.94;87.00
20630;BME280;17386;43.846;25.950;2022-09-12T01:51:38;100680.09;;;20.01;86.94
20630;BME280;17386;43.846;25.950;2022-09-12T01:54:20;100684.22;;;19.93;87.33
20630;BME280;17386;43.846;25.950;2022-09-12T01:56:48;100691.22;;;19.96;87.07
20630;BME280;17386;43.846;25.950;2022-09-12T01:59:37;100696.59;;;19.96;87.34
20630;BME280;17386;43.846;25.950;2022-09-12T02:02:13;100694.31;;;20.03;86.91
20630;BME280;17386;43.846;25.950;2022-09-12T02:05:00;100678.88;;;20.05;86.86
20630;BME280;17386;43.846;25.950;2022-09-12T02:07:39;100680.81;;;20.03;86.89
20630;BME280;17386;43.846;25.950;2022-09-12T02:10:15;100689.75;;;19.92;86.95
20630;BME280;17386;43.846;25.950;2022-09-12T02:12:49;100676.25;;;19.92;86.95
20630;BME280;17386;43.846;25.950;2022-09-12T02:15:20;100677.56;;;19.86;87.23
20630;BME280;17386;43.846;25.950;2022-09-12T02:17:49;100676.44;;;19.78;87.83
20630;BME280;17386;43.846;25.950;2022-09-12T02:20:22;100673.63;;;19.79;87.76
20630;BME280;17386;43.846;25.950;2022-09-12T02:22:51;100677.63;;;19.74;88.20
20630;BME280;17386;43.846;25.950;2022-09-12T02:25:17;100679.47;;;19.73;88.33
20630;BME280;17386;43.846;25.950;2022-09-12T02:27:45;100677.47;;;19.64;88.83
20630;BME280;17386;43.846;25.950;2022-09-12T02:30:11;100668.75;;;19.60;89.04
20630;BME280;17386;43.846;25.950;2022-09-12T02:32:55;100667.50;;;19.40;90.25
20630;BME280;17386;43.846;25.950;2022-09-12T02:35:46;100661.28;;;19.27;91.34
20630;BME280;17386;43.846;25.950;2022-09-12T02:38:24;100662.06;;;19.29;91.49
20630;BME280;17386;43.846;25.950;2022-09-12T02:40:53;100655.16;;;19.25;91.43
20630;BME280;17386;43.846;25.950;2022-09-12T02:43:19;100668.22;;;19.06;92.60
20630;BME280;17386;43.846;25.950;2022-09-12T02:45:44;100676.09;;;19.09;92.99
20630;BME280;17386;43.846;25.950;2022-09-12T02:48:14;100665.53;;;19.06;93.49
20630;BME280;17386;43.846;25.950;2022-09-12T02:50:42;100667.69;;;19.01;93.34
20630;BME280;17386;43.846;25.950;2022-09-12T02:53:09;100662.09;;;19.04;93.92
20630;BME280;17386;43.846;25.950;2022-09-12T02:55:36;100668.91;;;18.97;94.31
20630;BME280;17386;43.846;25.950;2022-09-12T02:58:05;100672.22;;;19.00;93.97
20630;BME280;17386;43.846;25.950;2022-09-12T03:01:01;100673.53;;;18.95;94.66
20630;BME280;17386;43.846;25.950;2022-09-12T03:06:51;100668.16;;;18.82;95.53
20630;BME280;17386;43.846;25.950;2022-09-12T03:12:27;100675.34;;;18.56;97.48
20630;BME280;17386;43.846;25.950;2022-09-12T03:21:05;100669.84;;;18.45;97.65
20630;BME280;17386;43.846;25.950;2022-09-12T03:23:40;100679.56;;;18.47;98.12
20630;BME280;17386;43.846;25.950;2022-09-12T03:26:42;100669.31;;;18.52;98.02
20630;BME280;17386;43.846;25.950;2022-09-12T03:28:59;100679.56;;;18.47;98.33
20630;BME280;17386;43.846;25.950;2022-09-12T03:31:26;100676.53;;;18.52;98.69
20630;BME280;17386;43.846;25.950;2022-09-12T03:33:52;100685.25;;;18.55;98.23
20630;BME280;17386;43.846;25.950;2022-09-12T03:36:23;100670.84;;;18.56;97.57
20630;BME280;17386;43.846;25.950;2022-09-12T03:38:50;100682.13;;;18.49;97.93
20630;BME280;17386;43.846;25.950;2022-09-12T03:41:16;100677.47;;;18.38;98.67
20630;BME280;17386;43.846;25.950;2022-09-12T03:43:42;100693.97;;;18.46;98.35
20630;BME280;17386;43.846;25.950;2022-09-12T03:46:08;100690.63;;;18.43;98.83
20630;BME280;17386;43.846;25.950;2022-09-12T03:48:34;100690.06;;;18.38;99.08
20630;BME280;17386;43.846;25.950;2022-09-12T03:51:05;100700.03;;;18.10;100.00
20630;BME280;17386;43.846;25.950;2022-09-12T03:53:31;100693.94;;;18.21;100.00
20630;BME280;17386;43.846;25.950;2022-09-12T03:55:57;100709.31;;;18.19;100.00
20630;BME280;17386;43.846;25.950;2022-09-12T03:58:23;100704.00;;;18.17;100.00
20630;BME280;17386;43.846;25.950;2022-09-12T04:00:48;100701.88;;;18.22;100.00
20630;BME280;17386;43.846;25.950;2022-09-12T04:03:14;100708.88;;;18.25;100.00
20630;BME280;17386;43.846;25.950;2022-09-12T04:05:39;100706.66;;;18.04;100.00
20630;BME280;17386;43.846;25.950;2022-09-12T04:08:04;100703.91;;;18.06;100.00
20630;BME280;17386;43.846;25.950;2022-09-12T04:10:30;100715.97;;;17.86;100.00
20630;BME280;17386;43.846;25.950;2022-09-12T04:12:56;100713.41;;;17.85;100.00
20630;BME280;17386;43.846;25.950;2022-09-12T04:15:21;100715.81;;;17.75;100.00
20630;BME280;17386;43.846;25.950;2022-09-12T04:17:47;100715.97;;;17.86;100.00
20630;BME280;17386;43.846;25.950;2022-09-12T04:20:12;100715.47;;;17.94;100.00
20630;BME280;17386;43.846;25.950;2022-09-12T04:22:37;100726.06;;;17.83;100.00
20630;BME280;17386;43.846;25.950;2022-09-12T04:25:03;100724.91;;;17.87;100.00
20630;BME280;17386;43.846;25.950;2022-09-12T04:27:29;100733.25;;;17.82;100.00
20630;BME280;17386;43.846;25.950;2022-09-12T04:29:55;100739.94;;;17.89;100.00
20630;BME280;17386;43.846;25.950;2022-09-12T04:32:20;100738.69;;;17.95;100.00
20630;BME280;17386;43.846;25.950;2022-09-12T04:34:46;100751.78;;;17.87;100.00
20630;BME280;17386;43.846;25.950;2022-09-12T04:37:12;100756.34;;;17.72;100.00
20630;BME280;17386;43.846;25.950;2022-09-12T04:39:37;100756.81;;;17.79;100.00
20630;BME280;17386;43.846;25.950;2022-09-12T04:42:03;100755.63;;;17.68;100.00
20630;BME280;17386;43.846;25.950;2022-09-12T04:44:29;100765.03;;;17.75;100.00
20630;BME280;17386;43.846;25.950;2022-09-12T04:46:55;100760.88;;;17.84;100.00
20630;BME280;17386;43.846;25.950;2022-09-12T04:49:21;100760.88;;;17.84;100.00
20630;BME280;17386;43.846;25.950;2022-09-12T04:51:47;100769.13;;;17.95;100.00
20630;BME280;17386;43.846;25.950;2022-09-12T04:54:15;100766.47;;;17.81;100.00
20630;BME280;17386;43.846;25.950;2022-09-12T04:56:43;100773.69;;;17.66;100.00
20630;BME280;17386;43.846;25.950;2022-09-12T04:59:10;100780.88;;;17.66;100.00
20630;BME280;17386;43.846;25.950;2022-09-12T05:01:35;100788.38;;;17.75;100.00
20630;BME280;17386;43.846;25.950;2022-09-12T05:04:01;100779.34;;;17.76;100.00
20630;BME280;17386;43.846;25.950;2022-09-12T05:06:33;100783.81;;;17.90;100.00
20630;BME280;17386;43.846;25.950;2022-09-12T05:08:59;100784.59;;;17.92;100.00
20630;BME280;17386;43.846;25.950;2022-09-12T05:11:28;100786.66;;;18.01;100.00
20630;BME280;17386;43.846;25.950;2022-09-12T05:13:54;100782.38;;;18.11;100.00
20630;BME280;17386;43.846;25.950;2022-09-12T05:16:21;100776.25;;;18.09;100.00
20630;BME280;17386;43.846;25.950;2022-09-12T05:18:47;100773.06;;;18.17;100.00
20630;BME280;17386;43.846;25.950;2022-09-12T05:21:15;100778.47;;;18.29;100.00
20630;BME280;17386;43.846;25.950;2022-09-12T05:23:40;100780.53;;;18.39;100.00
20630;BME280;17386;43.846;25.950;2022-09-12T05:26:07;100782.16;;;18.28;100.00
20630;BME280;17386;43.846;25.950;2022-09-12T05:28:34;100779.34;;;18.30;100.00
20630;BME280;17386;43.846;25.950;2022-09-12T05:31:07;100778.47;;;18.29;100.00
20630;BME280;17386;43.846;25.950;2022-09-12T05:33:35;100775.78;;;18.29;100.00
20630;BME280;17386;43.846;25.950;2022-09-12T05:36:02;100775.63;;;18.18;100.00
20630;BME280;17386;43.846;25.950;2022-09-12T05:38:27;100775.22;;;18.24;100.00
20630;BME280;17386;43.846;25.950;2022-09-12T05:41:10;100774.97;;;18.42;100.00
20630;BME280;17386;43.846;25.950;2022-09-12T05:43:37;100782.75;;;18.46;100.00
20630;BME280;17386;43.846;25.950;2022-09-12T05:46:05;100787.22;;;18.73;100.00
20630;BME280;17386;43.846;25.950;2022-09-12T05:48:36;100789.06;;;18.85;99.92
20630;BME280;17386;43.846;25.950;2022-09-12T05:51:04;100785.81;;;18.93;98.39
20630;BME280;17386;43.846;25.950;2022-09-12T05:53:31;100791.44;;;19.02;97.51
20630;BME280;17386;43.846;25.950;2022-09-12T05:56:10;100801.44;;;19.13;96.69
20630;BME280;17386;43.846;25.950;2022-09-12T05:58:37;100799.97;;;19.09;96.15
20630;BME280;17386;43.846;25.950;2022-09-12T06:01:16;100795.00;;;19.16;95.93
20630;BME280;17386;43.846;25.950;2022-09-12T06:03:50;100792.50;;;19.25;95.79
20630;BME280;17386;43.846;25.950;2022-09-12T06:06:16;100795.31;;;19.36;95.25
20630;BME280;17386;43.846;25.950;2022-09-12T06:08:44;100794.03;;;19.17;95.57
20630;BME280;17386;43.846;25.950;2022-09-12T06:11:12;100795.72;;;19.43;95.34
20630;BME280;17386;43.846;25.950;2022-09-12T06:13:39;100799.78;;;19.49;94.32
20630;BME280;17386;43.846;25.950;2022-09-12T06:16:10;100792.03;;;19.57;93.67
20630;BME280;17386;43.846;25.950;2022-09-12T06:18:36;100797.03;;;19.63;92.68
20630;BME280;17386;43.846;25.950;2022-09-12T06:21:04;100796.88;;;19.77;92.18
20630;BME280;17386;43.846;25.950;2022-09-12T06:23:30;100785.94;;;19.91;89.95
20630;BME280;17386;43.846;25.950;2022-09-12T06:25:55;100795.78;;;20.04;89.37
20630;BME280;17386;43.846;25.950;2022-09-12T06:28:27;100794.38;;;20.11;88.61
20630;BME280;17386;43.846;25.950;2022-09-12T06:30:52;100791.81;;;19.97;89.33
20630;BME280;17386;43.846;25.950;2022-09-12T06:33:18;100799.66;;;20.12;88.96
20630;BME280;17386;43.846;25.950;2022-09-12T06:35:43;100790.66;;;20.25;88.27
20630;BME280;17386;43.846;25.950;2022-09-12T06:38:09;100801.25;;;20.39;86.20
20630;BME280;17386;43.846;25.950;2022-09-12T06:40:44;100800.03;;;20.43;85.63
20630;BME280;17386;43.846;25.950;2022-09-12T06:43:11;100794.59;;;20.56;85.83
20630;BME280;17386;43.846;25.950;2022-09-12T06:45:38;100788.41;;;20.66;85.19
20630;BME280;17386;43.846;25.950;2022-09-12T06:48:03;100792.13;;;20.88;83.87
20630;BME280;17386;43.846;25.950;2022-09-12T06:50:29;100794.47;;;21.03;83.07
20630;BME280;17386;43.846;25.950;2022-09-12T06:52:55;100791.53;;;21.18;82.08
20630;BME280;17386;43.846;25.950;2022-09-12T06:55:20;100795.38;;;21.15;80.78
20630;BME280;17386;43.846;25.950;2022-09-12T06:57:48;100792.97;;;21.35;81.06
20630;BME280;17386;43.846;25.950;2022-09-12T07:00:13;100791.09;;;21.46;80.34
20630;BME280;17386;43.846;25.950;2022-09-12T07:02:39;100792.81;;;21.58;79.64
20630;BME280;17386;43.846;25.950;2022-09-12T07:05:05;100794.25;;;21.74;79.86
20630;BME280;17386;43.846;25.950;2022-09-12T07:07:30;100796.84;;;21.75;77.13
20630;BME280;17386;43.846;25.950;2022-09-12T07:09:58;100792.19;;;21.66;78.57
20630;BME280;17386;43.846;25.950;2022-09-12T07:12:23;100793.63;;;21.81;76.98
20630;BME280;17386;43.846;25.950;2022-09-12T07:14:49;100794.31;;;22.06;75.83
20630;BME280;17386;43.846;25.950;2022-09-12T07:17:14;100794.56;;;22.14;74.52
20630;BME280;17386;43.846;25.950;2022-09-12T07:19:40;100793.34;;;22.18;74.69
20630;BME280;17386;43.846;25.950;2022-09-12T07:22:05;100798.16;;;22.03;74.76
20630;BME280;17386;43.846;25.950;2022-09-12T07:24:30;100799.16;;;21.80;74.51
20630;BME280;17386;43.846;25.950;2022-09-12T07:26:56;100807.06;;;21.72;74.88
20630;BME280;17386;43.846;25.950;2022-09-12T07:29:21;100806.81;;;21.64;75.60
20630;BME280;17386;43.846;25.950;2022-09-12T07:31:47;100808.78;;;21.73;75.23
20630;BME280;17386;43.846;25.950;2022-09-12T07:34:15;100804.47;;;21.70;75.27
20630;BME280;17386;43.846;25.950;2022-09-12T07:36:41;100806.81;;;21.64;76.85
20630;BME280;17386;43.846;25.950;2022-09-12T07:39:07;100805.56;;;21.68;76.35
20630;BME280;17386;43.846;25.950;2022-09-12T07:41:32;100800.78;;;21.71;76.32
20630;BME280;17386;43.846;25.950;2022-09-12T07:44:00;100801.78;;;21.70;75.99
20630;BME280;17386;43.846;25.950;2022-09-12T07:46:28;100800.66;;;21.62;76.16
20630;BME280;17386;43.846;25.950;2022-09-12T07:48:56;100807.31;;;21.69;75.77
20630;BME280;17386;43.846;25.950;2022-09-12T07:51:23;100805.44;;;21.80;75.53
20630;BME280;17386;43.846;25.950;2022-09-12T07:53:49;100791.00;;;22.02;73.91
20630;BME280;17386;43.846;25.950;2022-09-12T07:56:16;100790.78;;;22.17;73.25
20630;BME280;17386;43.846;25.950;2022-09-12T07:58:42;100796.03;;;22.07;74.21
20630;BME280;17386;43.846;25.950;2022-09-12T08:01:15;100786.91;;;22.30;73.62
20630;BME280;17386;43.846;25.950;2022-09-12T08:03:42;100791.53;;;22.39;73.23
20630;BME280;17386;43.846;25.950;2022-09-12T08:06:14;100789.31;;;22.45;72.72
20630;BME280;17386;43.846;25.950;2022-09-12T08:08:40;100785.28;;;22.60;71.63
20630;BME280;17386;43.846;25.950;2022-09-12T08:11:08;100783.25;;;22.73;71.44
20630;BME280;17386;43.846;25.950;2022-09-12T08:13:36;100781.88;;;22.79;71.18
20630;BME280;17386;43.846;25.950;2022-09-12T08:16:03;100779.81;;;22.92;69.92
20630;BME280;17386;43.846;25.950;2022-09-12T08:18:30;100777.97;;;22.72;70.33
20630;BME280;17386;43.846;25.950;2022-09-12T08:21:01;100781.25;;;22.75;71.13
20630;BME280;17386;43.846;25.950;2022-09-12T08:23:28;100767.88;;;22.74;70.89
20630;BME280;17386;43.846;25.950;2022-09-12T08:26:01;100776.19;;;22.82;70.41
20630;BME280;17386;43.846;25.950;2022-09-12T08:28:28;100772.47;;;22.83;70.61
20630;BME280;17386;43.846;25.950;2022-09-12T08:33:27;100768.69;;;23.16;68.16
20630;BME280;17386;43.846;25.950;2022-09-12T08:38:29;100755.34;;;23.24;66.84
20630;BME280;17386;43.846;25.950;2022-09-12T08:41:02;100754.25;;;23.36;66.75
20630;BME280;17386;43.846;25.950;2022-09-12T08:46:47;100745.88;;;23.49;65.80
20630;BME280;17386;43.846;25.950;2022-09-12T08:49:34;100746.56;;;23.82;64.82
20630;BME280;17386;43.846;25.950;2022-09-12T08:52:06;100749.69;;;23.87;63.78
20630;BME280;17386;43.846;25.950;2022-09-12T08:54:34;100739.88;;;23.95;62.99
20630;BME280;17386;43.846;25.950;2022-09-12T08:57:04;100741.31;;;24.09;63.09
20630;BME280;17386;43.846;25.950;2022-09-12T08:59:36;100737.59;;;24.20;62.00
20630;BME280;17386;43.846;25.950;2022-09-12T09:02:08;100737.63;;;24.29;62.25
20630;BME280;17386;43.846;25.950;2022-09-12T09:04:51;100731.03;;;24.42;61.26
20630;BME280;17386;43.846;25.950;2022-09-12T09:10:26;100722.59;;;24.54;61.10
20630;BME280;17386;43.846;25.950;2022-09-12T09:15:48;100718.56;;;24.68;58.94
20630;BME280;17386;43.846;25.950;2022-09-12T09:18:23;100713.56;;;24.73;58.78
20630;BME280;17386;43.846;25.950;2022-09-12T09:20:56;100711.84;;;24.63;58.44
20630;BME280;17386;43.846;25.950;2022-09-12T09:23:28;100704.09;;;24.87;57.26
20630;BME280;17386;43.846;25.950;2022-09-12T09:26:00;100704.94;;;24.88;56.15
20630;BME280;17386;43.846;25.950;2022-09-12T09:30:54;100693.16;;;24.97;56.38
20630;BME280;17386;43.846;25.950;2022-09-12T09:33:23;100693.13;;;25.16;56.30
20630;BME280;17386;43.846;25.950;2022-09-12T09:38:40;100693.03;;;25.35;55.40
20630;BME280;17386;43.846;25.950;2022-09-12T09:43:49;100698.78;;;25.32;51.70
20630;BME280;17386;43.846;25.950;2022-09-12T09:46:14;100693.94;;;25.54;51.41
20630;BME280;17386;43.846;25.950;2022-09-12T09:48:46;100691.69;;;25.49;51.24
20630;BME280;17386;43.846;25.950;2022-09-12T09:51:16;100694.72;;;25.64;51.35
20630;BME280;17386;43.846;25.950;2022-09-12T09:53:53;100674.31;;;25.60;50.25
20630;BME280;17386;43.846;25.950;2022-09-12T09:56:40;100687.34;;;26.02;50.14
20630;BME280;17386;43.846;25.950;2022-09-12T09:59:19;100691.38;;;25.98;49.54
20630;BME280;17386;43.846;25.950;2022-09-12T10:04:41;100676.72;;;26.52;47.74
20630;BME280;17386;43.846;25.950;2022-09-12T10:07:18;100683.50;;;26.74;46.74
20630;BME280;17386;43.846;25.950;2022-09-12T10:10:18;100677.59;;;26.87;45.37
20630;BME280;17386;43.846;25.950;2022-09-12T10:12:44;100685.56;;;26.80;45.11
20630;BME280;17386;43.846;25.950;2022-09-12T10:17:44;100674.03;;;27.12;44.55
20630;BME280;17386;43.846;25.950;2022-09-12T10:20:33;100679.72;;;27.27;45.23
20630;BME280;17386;43.846;25.950;2022-09-12T10:23:02;100681.19;;;27.13;44.90
20630;BME280;17386;43.846;25.950;2022-09-12T10:25:29;100674.75;;;26.96;43.06
20630;BME280;17386;43.846;25.950;2022-09-12T10:27:57;100672.75;;;26.98;43.96
20630;BME280;17386;43.846;25.950;2022-09-12T10:30:25;100673.31;;;27.10;43.88
20630;BME280;17386;43.846;25.950;2022-09-12T10:32:55;100649.13;;;26.81;44.24
20630;BME280;17386;43.846;25.950;2022-09-12T10:35:23;100671.94;;;26.80;43.62
20630;BME280;17386;43.846;25.950;2022-09-12T10:37:57;100665.97;;;26.77;44.12
20630;BME280;17386;43.846;25.950;2022-09-12T10:40:25;100672.03;;;26.96;44.01
20630;BME280;17386;43.846;25.950;2022-09-12T10:42:57;100656.66;;;26.87;43.06
20630;BME280;17386;43.846;25.950;2022-09-12T10:47:52;100656.00;;;26.93;42.70
20630;BME280;17386;43.846;25.950;2022-09-12T10:50:23;100661.09;;;26.88;43.79
20630;BME280;17386;43.846;25.950;2022-09-12T10:52:54;100655.47;;;26.90;44.37
20630;BME280;17386;43.846;25.950;2022-09-12T10:55:36;100650.53;;;27.11;44.19
20630;BME280;17386;43.846;25.950;2022-09-12T10:58:21;100658.75;;;26.93;44.13
20630;BME280;17386;43.846;25.950;2022-09-12T11:00:57;100657.50;;;27.14;42.49
20630;BME280;17386;43.846;25.950;2022-09-12T11:06:12;100663.84;;;27.22;43.33
20630;BME280;17386;43.846;25.950;2022-09-12T11:17:17;100652.84;;;26.72;45.15
20630;BME280;17386;43.846;25.950;2022-09-12T11:30:15;100645.13;;;26.41;46.05
20630;BME280;17386;43.846;25.950;2022-09-12T11:41:00;100627.88;;;26.85;44.26
20630;BME280;17386;43.846;25.950;2022-09-12T11:46:36;100620.16;;;27.06;43.42
20630;BME280;17386;43.846;25.950;2022-09-12T11:49:16;100620.53;;;27.19;43.12
20630;BME280;17386;43.846;25.950;2022-09-12T11:52:00;100621.56;;;27.18;42.60
20630;BME280;17386;43.846;25.950;2022-09-12T12:00:01;100616.84;;;27.37;41.38
20630;BME280;17386;43.846;25.950;2022-09-12T12:02:28;100611.94;;;27.48;41.84
20630;BME280;17386;43.846;25.950;2022-09-12T12:07:37;100601.69;;;27.59;40.40
20630;BME280;17386;43.846;25.950;2022-09-12T12:10:06;100597.84;;;27.69;39.45
20630;BME280;17386;43.846;25.950;2022-09-12T12:12:31;100602.56;;;27.59;39.79
20630;BME280;17386;43.846;25.950;2022-09-12T12:14:58;100608.88;;;27.60;39.18
20630;BME280;17386;43.846;25.950;2022-09-12T12:17:24;100595.94;;;27.70;37.74
20630;BME280;17386;43.846;25.950;2022-09-12T12:20:00;100586.41;;;27.74;37.91
20630;BME280;17386;43.846;25.950;2022-09-12T12:22:27;100583.34;;;27.69;38.46
20630;BME280;17386;43.846;25.950;2022-09-12T12:38:11;100570.16;;;27.64;37.10
20630;BME280;17386;43.846;25.950;2022-09-12T12:40:49;100567.31;;;27.74;36.58
20630;BME280;17386;43.846;25.950;2022-09-12T12:43:29;100563.38;;;27.76;36.93
20630;BME280;17386;43.846;25.950;2022-09-12T12:46:07;100576.19;;;27.76;37.26
20630;BME280;17386;43.846;25.950;2022-09-12T12:51:58;100573.78;;;27.89;35.64
20630;BME280;17386;43.846;25.950;2022-09-12T12:54:29;100573.59;;;28.15;35.11
20630;BME280;17386;43.846;25.950;2022-09-12T12:59:55;100567.38;;;28.54;34.27
20630;BME280;17386;43.846;25.950;2022-09-12T13:02:32;100558.63;;;28.67;34.35
20630;BME280;17386;43.846;25.950;2022-09-12T13:05:00;100559.72;;;28.49;34.53
20630;BME280;17386;43.846;25.950;2022-09-12T13:07:32;100565.47;;;28.71;33.91
20630;BME280;17386;43.846;25.950;2022-09-12T13:09:59;100566.78;;;28.75;33.22
20630;BME280;17386;43.846;25.950;2022-09-12T13:12:41;100565.91;;;28.43;33.60
20630;BME280;17386;43.846;25.950;2022-09-12T13:18:26;100569.16;;;27.98;34.24
20630;BME280;17386;43.846;25.950;2022-09-12T13:23:28;100568.44;;;27.47;35.23
20630;BME280;17386;43.846;25.950;2022-09-12T13:25:56;100574.22;;;27.36;35.67
20630;BME280;17386;43.846;25.950;2022-09-12T13:28:23;100567.88;;;27.19;36.13
20630;BME280;17386;43.846;25.950;2022-09-12T13:30:55;100569.66;;;27.02;36.53
20630;BME280;17386;43.846;25.950;2022-09-12T13:33:35;100568.78;;;26.93;36.82
20630;BME280;17386;43.846;25.950;2022-09-12T13:43:57;100569.00;;;26.66;36.86
20630;BME280;17386;43.846;25.950;2022-09-12T13:46:31;100570.34;;;26.62;37.50
20630;BME280;17386;43.846;25.950;2022-09-12T13:49:00;100570.63;;;26.51;37.80
20630;BME280;17386;43.846;25.950;2022-09-12T13:51:30;100566.31;;;26.40;38.46
20630;BME280;17386;43.846;25.950;2022-09-12T13:53:58;100563.72;;;26.38;38.40
20630;BME280;17386;43.846;25.950;2022-09-12T13:56:27;100564.75;;;26.37;38.39
20630;BME280;17386;43.846;25.950;2022-09-12T13:58:53;100567.72;;;26.44;38.82
20630;BME280;17386;43.846;25.950;2022-09-12T14:01:21;100567.25;;;26.31;39.60
20630;BME280;17386;43.846;25.950;2022-09-12T14:03:53;100565.28;;;26.41;39.87
20630;BME280;17386;43.846;25.950;2022-09-12T14:06:46;100564.81;;;26.45;40.06
20630;BME280;17386;43.846;25.950;2022-09-12T14:09:25;100566.13;;;26.41;40.25
20630;BME280;17386;43.846;25.950;2022-09-12T14:11:53;100569.25;;;26.47;40.77
20630;BME280;17386;43.846;25.950;2022-09-12T14:16:57;100562.63;;;26.49;40.97
20630;BME280;17386;43.846;25.950;2022-09-12T14:19:23;100558.19;;;26.48;41.50
20630;BME280;17386;43.846;25.950;2022-09-12T14:21:51;100567.94;;;26.59;43.00
20630;BME280;17386;43.846;25.950;2022-09-12T14:24:18;100564.03;;;26.61;41.32
20630;BME280;17386;43.846;25.950;2022-09-12T14:26:48;100555.34;;;26.58;41.08
20630;BME280;17386;43.846;25.950;2022-09-12T14:29:15;100561.31;;;26.61;40.98
20630;BME280;17386;43.846;25.950;2022-09-12T14:31:42;100567.75;;;26.52;41.38
20630;BME280;17386;43.846;25.950;2022-09-12T14:39:17;100562.63;;;26.23;42.71
20630;BME280;17386;43.846;25.950;2022-09-12T14:41:44;100558.06;;;26.32;42.16
20630;BME280;17386;43.846;25.950;2022-09-12T14:44:21;100555.97;;;26.43;43.04
20630;BME280;17386;43.846;25.950;2022-09-12T14:46:49;100558.03;;;26.50;42.48
20630;BME280;17386;43.846;25.950;2022-09-12T14:49:19;100563.69;;;26.56;41.54
20630;BME280;17386;43.846;25.950;2022-09-12T15:02:41;100550.28;;;26.37;42.81
20630;BME280;17386;43.846;25.950;2022-09-12T15:07:35;100552.06;;;26.28;43.00
20630;BME280;17386;43.846;25.950;2022-09-12T15:10:51;100552.66;;;26.14;43.44
20630;BME280;17386;43.846;25.950;2022-09-12T15:15:58;100587.59;;;26.01;43.84
20630;BME280;17386;43.846;25.950;2022-09-12T15:18:25;100576.03;;;25.99;43.52
20630;BME280;17386;43.846;25.950;2022-09-12T15:20:54;100576.59;;;25.84;44.89
20630;BME280;17386;43.846;25.950;2022-09-12T15:23:43;100582.72;;;25.69;47.36
20630;BME280;17386;43.846;25.950;2022-09-12T15:26:23;100589.41;;;25.56;54.44
20630;BME280;17386;43.846;25.950;2022-09-12T15:28:51;100592.28;;;25.19;64.51
20630;BME280;17386;43.846;25.950;2022-09-12T15:31:29;100589.63;;;24.63;62.94
20630;BME280;17386;43.846;25.950;2022-09-12T15:33:56;100588.56;;;24.46;66.44
20630;BME280;17386;43.846;25.950;2022-09-12T15:36:22;100582.00;;;24.29;64.57